首页
METAR-TAF:

METAR-TAF

机场 :

切尔维亚, 意大利

纬度: 44-13N, 经度: 012-18E, 海拔: 6米

当前天气观测

该预报发布于56分钟前的19:55 UTC
风速1节,风向西
温度 3°C
湿度 87%
气压 1020 hPa
能見度: 0200

METAR: LIPC 261955Z 27001KT 0200 R11/0300 FG NSC 03/01 Q1020

时间: 21:51 (20:51 UTC)

预报

该预报发布于51分钟前的20:00 UTC
预报有效从26日的 21点(UTC)到 27日的 06点(UTC)
风速3节,风向西转西北
能見度: 1200
散云层高于1500英尺
散云层高于3000英尺
轻雾
短暂存在
从 26日的 22点(UTC)到 27日的 06点(UTC)
能見度: 0600
多云层高于500英尺

TAF: LIPC 262000Z 2621/2706 29003KT 1200 BR SCT015 SCT030 TEMPO 2622/2706 0600 FG BKN005

超过4000个机场的气象观测和天气预报(METAR&TAF报告)。

可查询的气象台以黄色和红色小点在地图上表示。

将鼠标移到小点上方,可查看气象台名称。

然后点击查看天气观测和预报。

如需切换地图:点击带黑十字的绿色按钮放大地图;点击带横线的绿色按钮缩小地图;或者点击绿色箭头查看邻近地区的地图。


METAR-TAF: